createdAt,value
2018-11-07T00:02:17.560Z,22.17
2018-11-07T00:07:22.049Z,20.43
2018-11-07T00:12:26.485Z,20.43
2018-11-07T00:17:30.936Z,22.87
2018-11-07T00:22:35.635Z,21.07
2018-11-07T00:27:40.295Z,21.47
2018-11-07T00:32:44.744Z,21.17
2018-11-07T00:37:49.186Z,22.27
2018-11-07T00:42:53.657Z,21.00
2018-11-07T00:47:58.230Z,21.73
2018-11-07T00:53:02.657Z,21.43
2018-11-07T00:58:07.198Z,22.43
2018-11-07T01:03:11.597Z,21.27
2018-11-07T01:08:16.020Z,20.95
2018-11-07T01:13:20.447Z,22.10
2018-11-07T01:18:24.867Z,22.20
2018-11-07T01:23:29.297Z,22.20
2018-11-07T01:28:33.724Z,21.87
2018-11-07T01:33:38.165Z,21.50
2018-11-07T01:38:42.579Z,21.90
2018-11-07T01:43:46.989Z,21.07
2018-11-07T01:48:51.422Z,22.27
2018-11-07T01:53:55.841Z,21.40
2018-11-07T01:59:00.260Z,21.27
2018-11-07T02:04:04.737Z,20.60
2018-11-07T02:09:10.333Z,23.40
2018-11-07T02:14:14.752Z,21.77
2018-11-07T02:19:19.174Z,21.07
2018-11-07T02:24:23.632Z,21.93
2018-11-07T02:29:28.144Z,20.65
2018-11-07T02:34:32.610Z,22.10
2018-11-07T02:39:37.016Z,22.70
2018-11-07T02:44:41.565Z,22.73
2018-11-07T02:49:45.989Z,22.20
2018-11-07T02:54:50.398Z,22.23
2018-11-07T02:59:54.952Z,22.43
2018-11-07T03:04:59.368Z,22.10
2018-11-07T03:10:03.829Z,22.30
2018-11-07T03:15:08.599Z,21.60
2018-11-07T03:20:13.815Z,22.47
2018-11-07T03:25:18.267Z,21.70
2018-11-07T03:30:22.736Z,21.80
2018-11-07T03:35:27.744Z,22.50
2018-11-07T03:40:32.161Z,22.80
2018-11-07T03:45:41.732Z,21.40
2018-11-07T03:50:46.184Z,21.73
2018-11-07T03:55:50.592Z,22.77
2018-11-07T04:00:55.195Z,23.35
2018-11-07T04:05:59.681Z,23.50
2018-11-07T04:11:04.104Z,21.83
2018-11-07T04:16:08.552Z,22.13
2018-11-07T04:21:12.972Z,21.77
2018-11-07T04:26:17.417Z,22.70
2018-11-07T04:31:21.906Z,22.87
2018-11-07T04:36:26.586Z,22.73
2018-11-07T04:41:31.008Z,22.10
2018-11-07T04:46:35.432Z,22.70
2018-11-07T04:51:39.860Z,21.80
2018-11-07T04:56:44.269Z,22.03
2018-11-07T05:01:48.724Z,22.23
2018-11-07T05:06:53.148Z,22.00
2018-11-07T05:11:57.896Z,23.20
2018-11-07T05:17:02.310Z,22.03
2018-11-07T05:22:06.744Z,23.03
2018-11-07T05:27:11.169Z,21.23
2018-11-07T05:32:15.592Z,22.77
2018-11-07T05:37:20.029Z,22.93
2018-11-07T05:42:24.462Z,23.07
2018-11-07T05:47:28.932Z,22.67
2018-11-07T05:52:33.465Z,22.37
2018-11-07T05:57:38.033Z,23.20
2018-11-07T06:02:42.578Z,23.00
2018-11-07T06:07:47.080Z,25.00
2018-11-07T06:12:51.513Z,24.10
2018-11-07T06:17:56.417Z,23.97
2018-11-07T06:23:00.969Z,25.63
2018-11-07T06:28:05.361Z,25.32
2018-11-07T06:33:09.864Z,26.50
2018-11-07T06:38:14.280Z,24.70
2018-11-07T06:43:18.805Z,25.57
2018-11-07T06:48:23.253Z,26.30
2018-11-07T06:53:27.672Z,26.20
2018-11-07T06:58:32.323Z,26.10
2018-11-07T07:03:36.789Z,25.20
2018-11-07T07:08:41.212Z,27.10
2018-11-07T07:13:45.641Z,27.13
2018-11-07T07:18:50.172Z,27.57
2018-11-07T07:23:54.605Z,27.23
2018-11-07T07:28:59.096Z,27.33
2018-11-07T07:34:03.540Z,28.37
2018-11-07T07:39:10.016Z,26.83
2018-11-07T07:44:14.428Z,27.87
2018-11-07T07:49:18.903Z,28.00
2018-11-07T07:54:23.353Z,27.03
2018-11-07T07:59:27.780Z,28.13
2018-11-07T08:04:32.244Z,28.37
2018-11-07T08:09:36.721Z,28.87
2018-11-07T08:14:41.148Z,28.57
2018-11-07T08:19:45.620Z,28.97
2018-11-07T08:24:50.065Z,29.17
2018-11-07T08:29:54.520Z,28.30
2018-11-07T08:34:59.053Z,28.43
2018-11-07T08:40:03.708Z,28.73
2018-11-07T08:45:09.137Z,29.07
2018-11-07T08:50:21.095Z,29.90
2018-11-07T08:55:28.291Z,28.03
2018-11-07T09:29:06.441Z,28.97
2018-11-07T09:34:10.875Z,29.83
2018-11-07T09:39:15.413Z,28.63
2018-11-07T09:44:19.848Z,29.83
2018-11-07T09:49:24.318Z,28.70
2018-11-07T09:54:28.749Z,28.53
2018-11-07T09:59:33.249Z,29.07
2018-11-07T10:04:37.715Z,29.00
2018-11-07T10:09:42.165Z,29.13
2018-11-07T10:14:46.615Z,28.03
2018-11-07T10:19:51.054Z,27.67
2018-11-07T10:24:55.525Z,27.63
2018-11-07T10:30:00.344Z,27.83
2018-11-07T10:35:04.981Z,27.47
2018-11-07T10:40:12.336Z,25.57
2018-11-07T10:45:16.792Z,26.30
2018-11-07T10:50:21.991Z,25.67
2018-11-07T10:55:26.433Z,25.63
2018-11-07T11:00:36.301Z,25.33
2018-11-07T11:05:40.965Z,25.97
2018-11-07T11:10:45.404Z,24.67
2018-11-07T11:15:49.857Z,24.57
2018-11-07T11:20:54.308Z,25.05
2018-11-07T11:25:58.807Z,25.00
2018-11-07T11:31:03.220Z,24.93
2018-11-07T11:36:07.656Z,26.00
2018-11-07T11:41:12.135Z,23.27
2018-11-07T11:50:03.574Z,24.63
2018-11-07T11:55:08.081Z,23.60
2018-11-07T12:00:16.008Z,24.63
2018-11-07T12:05:20.695Z,25.03
2018-11-07T12:10:26.328Z,22.37
2018-11-07T12:15:30.831Z,23.53
2018-11-07T12:20:35.300Z,24.50
2018-11-07T12:25:39.850Z,23.12
2018-11-07T12:30:44.356Z,23.87
2018-11-07T12:35:48.816Z,23.50
2018-11-07T12:40:53.267Z,22.97
2018-11-07T12:45:57.872Z,23.43
2018-11-07T12:51:02.449Z,23.60
2018-11-07T12:56:07.385Z,22.63
2018-11-07T13:01:11.909Z,22.07
2018-11-07T13:06:16.398Z,22.70
2018-11-07T13:11:20.921Z,22.90
2018-11-07T13:16:27.942Z,23.00
2018-11-07T13:21:35.319Z,23.40
2018-11-07T13:26:42.496Z,22.57
2018-11-07T13:31:47.261Z,23.57
2018-11-07T13:36:51.926Z,22.60
2018-11-07T13:41:56.419Z,22.37
2018-11-07T13:47:00.870Z,24.50
2018-11-07T13:52:05.842Z,23.20
2018-11-07T13:57:10.283Z,22.70
2018-11-07T14:02:14.766Z,22.37
2018-11-07T14:07:19.308Z,23.97
2018-11-07T14:12:23.857Z,22.73
2018-11-07T14:17:28.381Z,23.20
2018-11-07T14:22:32.925Z,21.10
2018-11-07T14:27:37.667Z,24.07
2018-11-07T14:32:45.962Z,22.37
2018-11-07T14:37:50.647Z,20.73
2018-11-07T14:42:55.212Z,20.60
2018-11-07T14:47:59.680Z,20.60
2018-11-07T14:53:04.186Z,20.50
2018-11-07T14:58:08.638Z,21.13
2018-11-07T15:03:13.153Z,20.43
2018-11-07T15:08:17.734Z,20.10
2018-11-07T15:13:22.141Z,20.87
2018-11-07T15:18:26.679Z,22.40
2018-11-07T15:23:31.497Z,21.77
2018-11-07T15:28:35.954Z,21.50
2018-11-07T15:33:40.405Z,21.60
2018-11-07T15:38:44.868Z,20.90
2018-11-07T15:43:49.332Z,22.43
2018-11-07T15:48:53.780Z,20.93
2018-11-07T15:53:58.213Z,21.17
2018-11-07T15:59:02.920Z,22.50
2018-11-07T16:04:07.393Z,24.33
2018-11-07T16:09:12.013Z,24.47
2018-11-07T16:14:16.471Z,27.70
2018-11-07T16:19:20.924Z,29.43
2018-11-07T16:24:25.372Z,34.73
2018-11-07T16:29:29.968Z,27.67
2018-11-07T16:34:34.406Z,24.67
2018-11-07T16:39:38.897Z,23.83
2018-11-07T16:44:43.372Z,25.37
2018-11-07T16:49:47.961Z,25.67
2018-11-07T16:54:52.438Z,24.80
2018-11-07T16:59:56.893Z,25.53
2018-11-07T17:05:01.525Z,27.53
2018-11-07T17:10:06.935Z,28.97
2018-11-07T17:15:11.484Z,29.20
2018-11-07T17:20:16.482Z,26.57
2018-11-07T17:25:21.001Z,23.97
2018-11-07T17:30:25.437Z,26.10
2018-11-07T17:35:30.705Z,25.30
2018-11-07T17:40:35.137Z,25.60
2018-11-07T17:45:39.581Z,24.75
2018-11-07T17:50:44.029Z,25.40
2018-11-07T17:55:48.496Z,24.35
2018-11-07T18:00:52.931Z,26.03
2018-11-07T18:05:57.517Z,25.27
2018-11-07T18:11:02.041Z,23.63
2018-11-07T18:16:06.696Z,23.57
2018-11-07T18:21:11.553Z,25.13
2018-11-07T18:26:15.996Z,25.00
2018-11-07T18:31:20.484Z,24.40
2018-11-07T18:36:24.932Z,25.30
2018-11-07T18:41:29.361Z,24.43
2018-11-07T18:46:33.823Z,24.33
2018-11-07T18:51:38.261Z,24.57
2018-11-07T18:56:42.729Z,25.50
2018-11-07T19:01:47.205Z,26.00
2018-11-07T19:06:51.714Z,23.90
2018-11-07T19:11:56.197Z,23.33
2018-11-07T19:17:00.739Z,25.05
2018-11-07T19:22:05.222Z,24.70
2018-11-07T19:27:09.684Z,25.33
2018-11-07T19:32:14.129Z,24.67
2018-11-07T19:37:18.545Z,24.70
2018-11-07T19:42:23.009Z,24.23
2018-11-07T19:47:27.437Z,25.47
2018-11-07T19:52:38.712Z,24.83
2018-11-07T19:57:44.871Z,23.83
2018-11-07T20:02:49.342Z,26.60
2018-11-07T20:07:53.839Z,26.13
2018-11-07T20:12:58.299Z,24.17
2018-11-07T20:18:02.775Z,24.43
2018-11-07T20:23:07.367Z,24.33
2018-11-07T20:28:11.861Z,24.10
2018-11-07T20:33:16.302Z,23.67
2018-11-07T20:38:20.869Z,24.85
2018-11-07T20:43:25.321Z,24.33
2018-11-07T20:48:29.767Z,23.23
2018-11-07T20:53:34.212Z,24.70
2018-11-07T20:58:38.753Z,24.23
2018-11-07T21:03:43.184Z,22.93
2018-11-07T21:08:47.646Z,23.17
2018-11-07T21:13:52.085Z,24.43
2018-11-07T21:18:56.536Z,23.63
2018-11-07T21:24:00.984Z,23.43
2018-11-07T21:29:05.539Z,24.33
2018-11-07T21:34:09.982Z,24.10
2018-11-07T21:39:14.458Z,23.53
2018-11-07T21:44:19.028Z,24.97
2018-11-07T21:49:23.462Z,24.33
2018-11-07T21:54:27.985Z,25.90
2018-11-07T21:59:32.416Z,25.30
2018-11-07T22:04:36.860Z,24.67
2018-11-07T22:09:41.442Z,24.87
2018-11-07T22:14:46.168Z,24.83
2018-11-07T22:19:50.697Z,24.73
2018-11-07T22:36:24.392Z,26.87
2018-11-07T22:41:28.827Z,23.83
2018-11-07T22:46:33.258Z,25.67
2018-11-07T22:51:37.681Z,24.70
2018-11-07T22:56:42.133Z,23.27
2018-11-07T23:01:46.566Z,25.67
2018-11-07T23:06:51.098Z,25.33
2018-11-07T23:11:55.539Z,26.17
2018-11-07T23:16:59.977Z,25.90
2018-11-07T23:22:04.485Z,25.07
2018-11-07T23:27:08.945Z,24.63
2018-11-07T23:32:13.379Z,23.20
2018-11-07T23:37:17.900Z,25.17
2018-11-07T23:42:22.377Z,25.90
2018-11-07T23:47:26.919Z,26.70
2018-11-07T23:52:36.764Z,24.90
2018-11-07T23:57:41.208Z,28.53
